Time,TemperatureF,DewpointF,PressureIn,WindDirection,WindDirectionDegrees,WindSpeedMPH,WindSpeedGustMPH,Humidity,HourlyPrecipIn,Conditions,Clouds,dailyrainin,SoftwareType,DateUTC
2013-04-26 00:09:00,41.4,36.0,29.80,NE,39,6.0,-999.0,80,-99.99,,,0.00,weatherlink.com 1.10,2013-04-26 05:09:00,
2013-04-26 00:24:00,40.6,36.0,29.79,ENE,58,4.0,-999.0,83,-99.99,,,0.00,weatherlink.com 1.10,2013-04-26 05:24:00,
2013-04-26 00:39:00,41.0,36.0,29.79,NE,44,4.0,-999.0,82,-99.99,,,0.00,weatherlink.com 1.10,2013-04-26 05:39:00,
2013-04-26 00:54:00,41.3,36.0,29.79,NE,55,0.0,-999.0,82,-99.99,,,0.00,weatherlink.com 1.10,2013-04-26 05:54:00,
2013-04-26 01:09:00,41.5,37.0,29.79,ENE,67,0.0,-999.0,83,-99.99,,,0.00,weatherlink.com 1.10,2013-04-26 06:09:00,
2013-04-26 01:24:00,41.2,36.0,29.78,ENE,70,0.0,-999.0,82,-99.99,,,0.00,weatherlink.com 1.10,2013-04-26 06:24:00,
2013-04-26 01:39:00,41.0,36.0,29.78,East,82,0.0,-999.0,83,-99.99,,,0.00,weatherlink.com 1.10,2013-04-26 06:39:00,
2013-04-26 01:54:00,40.9,36.0,29.78,SE,137,0.0,-999.0,83,-99.99,,,0.00,weatherlink.com 1.10,2013-04-26 06:54:00,
2013-04-26 02:09:00,41.4,37.0,29.78,SE,126,6.0,-999.0,84,-99.99,,,0.00,weatherlink.com 1.10,2013-04-26 07:09:00,
2013-04-26 02:24:00,42.1,37.0,29.77,ESE,116,3.0,-999.0,81,-99.99,,,0.00,weatherlink.com 1.10,2013-04-26 07:24:00,
2013-04-26 02:39:00,40.9,36.0,29.77,SE,132,6.0,-999.0,82,-99.99,,,0.00,weatherlink.com 1.10,2013-04-26 07:39:00,
2013-04-26 02:54:00,38.5,34.0,29.76,SE,130,8.0,-999.0,84,-99.99,,,0.00,weatherlink.com 1.10,2013-04-26 07:54:00,
2013-04-26 03:09:00,38.0,35.0,29.76,SE,141,7.0,-999.0,87,-99.99,,,0.00,weatherlink.com 1.10,2013-04-26 08:09:00,
2013-04-26 03:24:00,39.6,36.0,29.76,SSE,154,8.0,-999.0,85,-99.99,,,0.00,weatherlink.com 1.10,2013-04-26 08:24:00,
2013-04-26 03:39:00,39.4,35.0,29.77,SE,146,9.0,-999.0,84,-99.99,,,0.00,weatherlink.com 1.10,2013-04-26 08:39:00,
2013-04-26 03:54:00,39.8,35.0,29.77,SE,137,9.0,-999.0,84,-99.99,,,0.00,weatherlink.com 1.10,2013-04-26 08:54:00,
2013-04-26 04:09:00,39.7,35.0,29.78,SSE,148,0.0,-999.0,82,-99.99,,,0.00,weatherlink.com 1.10,2013-04-26 09:09:00,
2013-04-26 04:24:00,39.1,35.0,29.79,SSE,148,1.0,-999.0,84,-99.99,,,0.00,weatherlink.com 1.10,2013-04-26 09:24:00,
2013-04-26 04:39:00,39.0,35.0,29.79,SSE,148,3.0,-999.0,84,-99.99,,,0.00,weatherlink.com 1.10,2013-04-26 09:39:00,
2013-04-26 04:54:00,39.2,35.0,29.79,SSE,161,3.0,-999.0,83,-99.99,,,0.00,weatherlink.com 1.10,2013-04-26 09:54:00,
2013-04-26 05:09:00,39.7,34.0,29.80,SSE,161,2.0,-999.0,81,-99.99,,,0.00,weatherlink.com 1.10,2013-04-26 10:09:00,
2013-04-26 05:24:00,39.6,34.0,29.80,SSE,161,2.0,-999.0,81,-99.99,,,0.00,weatherlink.com 1.10,2013-04-26 10:24:00,
2013-04-26 05:39:00,38.7,34.0,29.81,SSE,161,0.0,-999.0,82,-99.99,,,0.00,weatherlink.com 1.10,2013-04-26 10:39:00,
2013-04-26 05:54:00,38.3,34.0,29.82,SSE,161,2.0,-999.0,83,-99.99,,,0.00,weatherlink.com 1.10,2013-04-26 10:54:00,
2013-04-26 06:09:00,37.8,33.0,29.82,SSE,161,1.0,-999.0,84,-99.99,,,0.00,weatherlink.com 1.10,2013-04-26 11:09:00,
2013-04-26 06:24:00,37.6,33.0,29.83,SSE,161,0.0,-999.0,84,-99.99,,,0.00,weatherlink.com 1.10,2013-04-26 11:24:00,
2013-04-26 06:39:00,37.1,33.0,29.84,SSE,161,2.0,-999.0,85,-99.99,,,0.00,weatherlink.com 1.10,2013-04-26 11:39:00,
2013-04-26 06:54:00,37.2,33.0,29.84,SSE,161,0.0,-999.0,85,-99.99,,,0.00,weatherlink.com 1.10,2013-04-26 11:54:00,
2013-04-26 07:09:00,37.9,34.0,29.85,SSE,161,0.0,-999.0,85,-99.99,,,0.00,weatherlink.com 1.10,2013-04-26 12:09:00,
2013-04-26 07:24:00,38.3,34.0,29.86,SSE,161,0.0,-999.0,85,-99.99,,,0.00,weatherlink.com 1.10,2013-04-26 12:24:00,
2013-04-26 07:39:00,39.3,35.0,29.87,SSE,161,7.0,-999.0,84,-99.99,,,0.00,weatherlink.com 1.10,2013-04-26 12:39:00,
2013-04-26 07:54:00,41.6,37.0,29.87,SSE,161,0.0,-999.0,82,-99.99,,,0.00,weatherlink.com 1.10,2013-04-26 12:54:00,
2013-04-26 08:09:00,44.0,38.0,29.88,SSE,161,3.0,-999.0,79,-99.99,,,0.00,weatherlink.com 1.10,2013-04-26 13:09:00,
2013-04-26 08:24:00,45.2,39.0,29.89,SSE,165,4.0,-999.0,78,-99.99,,,0.00,weatherlink.com 1.10,2013-04-26 13:24:00,
2013-04-26 08:39:00,46.1,39.0,29.89,South,172,2.0,-999.0,77,-99.99,,,0.00,weatherlink.com 1.10,2013-04-26 13:39:00,
2013-04-26 08:54:00,47.1,40.0,29.89,South,185,2.0,-999.0,76,-99.99,,,0.00,weatherlink.com 1.10,2013-04-26 13:54:00,
2013-04-26 09:09:00,46.7,39.0,29.90,NW,306,3.0,-999.0,75,-99.99,,,0.00,weatherlink.com 1.10,2013-04-26 14:09:00,
2013-04-26 09:24:00,46.9,40.0,29.91,NW,313,1.0,-999.0,76,-99.99,,,0.00,weatherlink.com 1.10,2013-04-26 14:24:00,
2013-04-26 09:39:00,47.8,40.0,29.91,WNW,299,2.0,-999.0,75,-99.99,,,0.00,weatherlink.com 1.10,2013-04-26 14:39:00,
2013-04-26 09:54:00,49.5,41.0,29.92,NW,325,2.0,-999.0,73,-99.99,,,0.00,weatherlink.com 1.10,2013-04-26 14:54:00,
2013-04-26 10:09:00,50.5,41.0,29.92,NNW,340,5.0,-999.0,69,-99.99,,,0.00,weatherlink.com 1.10,2013-04-26 15:09:00,
2013-04-26 10:24:00,50.8,42.0,29.93,NW,325,6.0,-999.0,71,-99.99,,,0.00,weatherlink.com 1.10,2013-04-26 15:24:00,
2013-04-26 10:39:00,51.7,42.0,29.94,NNW,327,4.0,-999.0,70,-99.99,,,0.00,weatherlink.com 1.10,2013-04-26 15:39:00,
2013-04-26 10:54:00,53.2,42.0,29.94,NNW,336,4.0,-999.0,67,-99.99,,,0.00,weatherlink.com 1.10,2013-04-26 15:54:00,
2013-04-26 11:09:00,54.8,42.0,29.94,NNW,336,2.0,-999.0,63,-99.99,,,0.00,weatherlink.com 1.10,2013-04-26 16:09:00,
2013-04-26 11:24:00,55.5,42.0,29.95,NNW,331,4.0,-999.0,60,-99.99,,,0.00,weatherlink.com 1.10,2013-04-26 16:24:00,
2013-04-26 11:39:00,56.4,41.0,29.96,NNW,331,5.0,-999.0,57,-99.99,,,0.00,weatherlink.com 1.10,2013-04-26 16:39:00,
2013-04-26 11:54:00,57.3,41.0,29.96,NNW,331,2.0,-999.0,55,-99.99,,,0.00,weatherlink.com 1.10,2013-04-26 16:54:00,
2013-04-26 12:09:00,58.2,40.0,29.96,NNW,331,4.0,-999.0,52,-99.99,,,0.00,weatherlink.com 1.10,2013-04-26 17:09:00,
2013-04-26 12:24:00,58.8,41.0,29.97,NNW,333,4.0,-999.0,52,-99.99,,,0.00,weatherlink.com 1.10,2013-04-26 17:24:00,
2013-04-26 12:39:00,59.4,39.0,29.97,NNW,333,3.0,-999.0,47,-99.99,,,0.00,weatherlink.com 1.10,2013-04-26 17:39:00,
2013-04-26 12:54:00,60.5,38.0,29.97,NNW,346,4.0,-999.0,44,-99.99,,,0.00,weatherlink.com 1.10,2013-04-26 17:54:00,
2013-04-26 13:09:00,60.6,37.0,29.97,NNW,327,4.0,-999.0,41,-99.99,,,0.00,weatherlink.com 1.10,2013-04-26 18:09:00,
2013-04-26 13:24:00,61.7,35.0,29.97,NNW,340,9.0,-999.0,37,-99.99,,,0.00,weatherlink.com 1.10,2013-04-26 18:24:00,
2013-04-26 13:39:00,61.8,36.0,29.97,NNW,333,8.0,-999.0,39,-99.99,,,0.00,weatherlink.com 1.10,2013-04-26 18:39:00,
2013-04-26 13:54:00,62.1,36.0,29.97,NNW,330,8.0,-999.0,38,-99.99,,,0.00,weatherlink.com 1.10,2013-04-26 18:54:00,
2013-04-26 14:09:00,62.7,36.0,29.97,NW,312,5.0,-999.0,37,-99.99,,,0.00,weatherlink.com 1.10,2013-04-26 19:09:00,
2013-04-26 14:24:00,63.1,36.0,29.97,NNW,336,6.0,-999.0,36,-99.99,,,0.00,weatherlink.com 1.10,2013-04-26 19:24:00,
2013-04-26 14:39:00,63.4,35.0,29.97,NNW,329,6.0,-999.0,35,-99.99,,,0.00,weatherlink.com 1.10,2013-04-26 19:39:00,
2013-04-26 14:54:00,63.5,37.0,29.97,NNW,329,6.0,-999.0,37,-99.99,,,0.00,weatherlink.com 1.10,2013-04-26 19:54:00,
2013-04-26 15:09:00,64.2,36.0,29.97,NNW,346,5.0,-999.0,35,-99.99,,,0.00,weatherlink.com 1.10,2013-04-26 20:09:00,
2013-04-26 15:24:00,64.5,37.0,29.97,NNW,333,5.0,-999.0,36,-99.99,,,0.00,weatherlink.com 1.10,2013-04-26 20:24:00,
2013-04-26 15:39:00,64.4,37.0,29.97,NNW,342,2.0,-999.0,36,-99.99,,,0.00,weatherlink.com 1.10,2013-04-26 20:39:00,
2013-04-26 15:54:00,64.7,35.0,29.97,NNW,342,2.0,-999.0,33,-99.99,,,0.00,weatherlink.com 1.10,2013-04-26 20:54:00,
2013-04-26 16:09:00,65.2,35.0,29.97,NW,323,1.0,-999.0,33,-99.99,,,0.00,weatherlink.com 1.10,2013-04-26 21:09:00,
2013-04-26 16:24:00,65.6,34.0,29.97,NNW,337,5.0,-999.0,31,-99.99,,,0.00,weatherlink.com 1.10,2013-04-26 21:24:00,
2013-04-26 16:39:00,66.0,36.0,29.97,NNW,337,1.0,-999.0,33,-99.99,,,0.00,weatherlink.com 1.10,2013-04-26 21:39:00,
2013-04-26 16:54:00,66.3,35.0,29.97,NNW,337,0.0,-999.0,31,-99.99,,,0.00,weatherlink.com 1.10,2013-04-26 21:54:00,
2013-04-26 17:09:00,66.0,34.0,29.97,NNW,337,0.0,-999.0,30,-99.99,,,0.00,weatherlink.com 1.10,2013-04-26 22:09:00,
2013-04-26 17:24:00,66.1,33.0,29.97,NNW,340,0.0,-999.0,29,-99.99,,,0.00,weatherlink.com 1.10,2013-04-26 22:24:00,
2013-04-26 17:39:00,66.1,32.0,29.98,NNW,340,2.0,-999.0,28,-99.99,,,0.00,weatherlink.com 1.10,2013-04-26 22:39:00,
2013-04-26 17:54:00,65.4,31.0,29.98,NNW,340,1.0,-999.0,28,-99.99,,,0.00,weatherlink.com 1.10,2013-04-26 22:54:00,
2013-04-26 18:09:00,65.4,32.0,29.98,NNW,340,0.0,-999.0,29,-99.99,,,0.00,weatherlink.com 1.10,2013-04-26 23:09:00,
2013-04-26 18:24:00,65.4,32.0,29.98,NNW,340,3.0,-999.0,29,-99.99,,,0.00,weatherlink.com 1.10,2013-04-26 23:24:00,
2013-04-26 18:39:00,65.3,31.0,29.98,NNW,340,0.0,-999.0,28,-99.99,,,0.00,weatherlink.com 1.10,2013-04-26 23:39:00,
2013-04-26 18:54:00,65.0,32.0,29.98,NNW,340,0.0,-999.0,29,-99.99,,,0.00,weatherlink.com 1.10,2013-04-26 23:54:00,
2013-04-26 19:09:00,65.2,33.0,29.98,NNW,340,0.0,-999.0,30,-99.99,,,0.00,weatherlink.com 1.10,2013-04-27 00:09:00,
2013-04-26 19:24:00,65.2,33.0,29.98,NNW,340,0.0,-999.0,30,-99.99,,,0.00,weatherlink.com 1.10,2013-04-27 00:24:00,
2013-04-26 19:39:00,64.2,37.0,29.98,East,101,1.0,-999.0,37,-99.99,,,0.00,weatherlink.com 1.10,2013-04-27 00:39:00,
2013-04-26 19:54:00,62.3,38.0,29.98,East,101,0.0,-999.0,41,-99.99,,,0.00,weatherlink.com 1.10,2013-04-27 00:54:00,
2013-04-26 20:09:00,60.4,36.0,29.98,East,101,0.0,-999.0,40,-99.99,,,0.00,weatherlink.com 1.10,2013-04-27 01:09:00,
2013-04-26 20:24:00,58.6,37.0,29.98,East,101,0.0,-999.0,44,-99.99,,,0.00,weatherlink.com 1.10,2013-04-27 01:24:00,
2013-04-26 20:39:00,57.4,37.0,29.98,ESE,105,2.0,-999.0,47,-99.99,,,0.00,weatherlink.com 1.10,2013-04-27 01:39:00,
2013-04-26 20:54:00,56.0,37.0,29.99,ESE,109,0.0,-999.0,49,-99.99,,,0.00,weatherlink.com 1.10,2013-04-27 01:54:00,
2013-04-26 21:09:00,55.3,37.0,29.99,ESE,109,1.0,-999.0,50,-99.99,,,0.00,weatherlink.com 1.10,2013-04-27 02:09:00,
2013-04-26 21:24:00,54.7,37.0,29.99,ESE,109,0.0,-999.0,51,-99.99,,,0.00,weatherlink.com 1.10,2013-04-27 02:24:00,
2013-04-26 21:39:00,53.5,37.0,29.99,ESE,110,1.0,-999.0,54,-99.99,,,0.00,weatherlink.com 1.10,2013-04-27 02:39:00,
2013-04-26 21:54:00,52.6,37.0,30.00,ESE,110,0.0,-999.0,55,-99.99,,,0.00,weatherlink.com 1.10,2013-04-27 02:54:00,
2013-04-26 22:09:00,50.9,36.0,30.00,SE,127,5.0,-999.0,58,-99.99,,,0.00,weatherlink.com 1.10,2013-04-27 03:09:00,
2013-04-26 22:24:00,49.8,37.0,30.00,SE,128,1.0,-999.0,61,-99.99,,,0.00,weatherlink.com 1.10,2013-04-27 03:24:00,
2013-04-26 22:39:00,50.0,37.0,30.00,SE,128,0.0,-999.0,62,-99.99,,,0.00,weatherlink.com 1.10,2013-04-27 03:39:00,
2013-04-26 22:54:00,49.2,37.0,30.00,SE,128,0.0,-999.0,63,-99.99,,,0.00,weatherlink.com 1.10,2013-04-27 03:54:00,
2013-04-26 23:09:00,49.4,36.0,30.00,SE,128,2.0,-999.0,61,-99.99,,,0.00,weatherlink.com 1.10,2013-04-27 04:09:00,
2013-04-26 23:24:00,48.8,37.0,30.00,SE,129,1.0,-999.0,63,-99.99,,,0.00,weatherlink.com 1.10,2013-04-27 04:24:00,
2013-04-26 23:39:00,48.6,36.0,30.00,SE,129,0.0,-999.0,62,-99.99,,,0.00,weatherlink.com 1.10,2013-04-27 04:39:00,
2013-04-26 23:54:00,48.3,36.0,29.99,SE,129,0.0,-999.0,63,-99.99,,,0.00,weatherlink.com 1.10,2013-04-27 04:54:00,